Time;durP1;ratioP1;P1;durP2;ratioP2;P2;SDS_P1;SDS_P2;PMS_P1;PMS_P2;Temp;Humidity;BMP_temperature;BMP_pressure;BME280_temperature;BME280_humidity;BME280_pressure;Samples;Min_cycle;Max_cycle;Signal;HPM_P1;HPM_P2
2023/10/15 00:01:30;;;;;;;12.97;5.03;;;;;;;;;;4976979;28;20169;-73
2023/10/15 00:03:56;;;;;;;18.57;5.90;;;;;;;;;;4976693;28;20190;-73
2023/10/15 00:06:22;;;;;;;16.10;4.90;;;;;;;;;;4994416;28;20577;-72
2023/10/15 00:08:49;;;;;;;8.80;4.80;;;;;;;;;;4994345;28;20200;-74
2023/10/15 00:11:18;;;;;;;14.40;5.30;;;;;;;;;;4976973;28;20609;-73
2023/10/15 00:13:44;;;;;;;14.47;4.60;;;;;;;;;;5019116;23;20172;-67
2023/10/15 00:16:16;;;;;;;15.40;4.63;;;;;;;;;;5012867;28;20226;-66
2023/10/15 00:18:42;;;;;;;16.07;5.13;;;;;;;;;;5015026;28;20178;-68
2023/10/15 00:21:12;;;;;;;12.23;5.17;;;;;;;;;;5013501;28;20187;-66
2023/10/15 00:23:38;;;;;;;9.37;4.23;;;;;;;;;;5014705;28;20196;-65
2023/10/15 00:26:04;;;;;;;12.20;4.63;;;;;;;;;;5014728;28;20204;-67
2023/10/15 00:28:31;;;;;;;13.73;5.50;;;;;;;;;;5013223;28;20302;-66
2023/10/15 00:30:57;;;;;;;7.70;4.47;;;;;;;;;;5013749;28;20183;-67
2023/10/15 00:33:23;;;;;;;14.77;4.43;;;;;;;;;;5019369;28;20550;-65
2023/10/15 00:35:53;;;;;;;12.53;4.63;;;;;;;;;;5018700;28;20207;-67
2023/10/15 00:38:19;;;;;;;14.57;5.03;;;;;;;;;;5018823;28;20270;-66
2023/10/15 00:40:49;;;;;;;17.33;4.50;;;;;;;;;;5017108;28;20544;-68
2023/10/15 00:43:17;;;;;;;14.03;4.77;;;;;;;;;;5017650;28;20222;-65
2023/10/15 00:45:46;;;;;;;11.13;4.03;;;;;;;;;;5016566;28;20650;-64
2023/10/15 00:48:19;;;;;;;9.40;4.20;;;;;;;;;;5018395;28;20186;-65
2023/10/15 00:50:45;;;;;;;13.80;4.63;;;;;;;;;;5016804;28;20560;-66
2023/10/15 00:53:27;;;;;;;13.37;4.50;;;;;;;;;;5016766;28;20183;-64
2023/10/15 00:56:10;;;;;;;13.43;4.47;;;;;;;;;;5018433;28;20236;-64
2023/10/15 00:58:45;;;;;;;9.90;3.80;;;;;;;;;;5018606;28;20160;-66
2023/10/15 01:03:51;;;;;;;9.57;4.30;;;;;;;;;;5017749;28;20172;-68
2023/10/15 01:06:32;;;;;;;13.93;4.10;;;;;;;;;;5016444;28;20697;-65
2023/10/15 01:08:59;;;;;;;9.00;3.80;;;;;;;;;;5017820;28;20225;-64
2023/10/15 01:11:28;;;;;;;10.67;4.10;;;;;;;;;;5017486;28;20176;-67
2023/10/15 01:13:54;;;;;;;6.97;3.70;;;;;;;;;;5016972;28;20259;-65
2023/10/15 01:16:20;;;;;;;9.87;4.40;;;;;;;;;;5016148;28;20176;-66
2023/10/15 01:18:59;;;;;;;14.50;4.27;;;;;;;;;;5017032;28;20176;-67
2023/10/15 01:21:29;;;;;;;9.93;4.27;;;;;;;;;;5017924;28;20164;-65
2023/10/15 01:24:04;;;;;;;8.10;4.07;;;;;;;;;;5016943;28;20180;-65
2023/10/15 01:26:34;;;;;;;17.13;6.03;;;;;;;;;;5015862;28;20203;-66
2023/10/15 01:29:01;;;;;;;14.43;6.00;;;;;;;;;;5015812;28;20168;-65
2023/10/15 01:31:27;;;;;;;15.53;6.43;;;;;;;;;;5015513;28;20203;-65
2023/10/15 01:33:53;;;;;;;17.30;6.47;;;;;;;;;;5015699;28;20191;-66
2023/10/15 01:36:22;;;;;;;12.47;6.17;;;;;;;;;;5016919;28;20183;-64
2023/10/15 01:38:54;;;;;;;15.17;5.73;;;;;;;;;;5016370;28;20184;-64
2023/10/15 01:41:25;;;;;;;17.20;5.40;;;;;;;;;;5017229;28;20168;-64
2023/10/15 01:43:56;;;;;;;13.57;6.10;;;;;;;;;;5016818;28;20673;-63
2023/10/15 01:46:48;;;;;;;14.67;5.80;;;;;;;;;;5015574;28;20200;-64
2023/10/15 01:49:17;;;;;;;14.87;6.37;;;;;;;;;;5017686;28;20208;-66
2023/10/15 01:51:44;;;;;;;16.03;5.93;;;;;;;;;;5016405;28;20180;-66
2023/10/15 01:54:12;;;;;;;13.77;6.20;;;;;;;;;;5017175;28;20275;-67
2023/10/15 01:56:38;;;;;;;12.80;5.97;;;;;;;;;;5016292;28;20547;-70
2023/10/15 01:59:10;;;;;;;10.93;6.20;;;;;;;;;;5016977;28;20183;-66
2023/10/15 02:01:49;;;;;;;19.87;7.10;;;;;;;;;;5016851;28;20289;-66
2023/10/15 02:04:41;;;;;;;17.97;7.33;;;;;;;;;;5016828;28;20206;-67
2023/10/15 02:07:04;;;;;;;12.70;5.67;;;;;;;;;;5015670;28;20700;-68
2023/10/15 02:09:38;;;;;;;17.27;6.80;;;;;;;;;;5014569;28;20180;-67
2023/10/15 02:12:07;;;;;;;10.83;6.53;;;;;;;;;;5014257;28;20202;-65
2023/10/15 02:14:33;;;;;;;14.07;6.50;;;;;;;;;;5013623;28;20254;-66
2023/10/15 02:16:59;;;;;;;14.27;6.90;;;;;;;;;;5013651;28;20246;-67
2023/10/15 02:19:34;;;;;;;13.13;7.93;;;;;;;;;;5015064;28;20187;-66
2023/10/15 02:22:06;;;;;;;14.50;6.80;;;;;;;;;;5013354;28;20258;-66
2023/10/15 02:24:34;;;;;;;11.33;6.73;;;;;;;;;;5013191;28;20203;-67
2023/10/15 02:27:05;;;;;;;15.10;7.33;;;;;;;;;;5014837;28;20195;-67
2023/10/15 02:32:06;;;;;;;12.97;7.73;;;;;;;;;;5014948;28;20235;-66
2023/10/15 02:34:32;;;;;;;16.33;7.90;;;;;;;;;;5013478;28;20238;-67
2023/10/15 02:37:03;;;;;;;16.83;8.27;;;;;;;;;;5013960;28;20639;-67
2023/10/15 02:39:36;;;;;;;16.33;7.67;;;;;;;;;;5015049;28;20172;-67
2023/10/15 02:42:02;;;;;;;11.23;7.47;;;;;;;;;;5015372;28;20176;-66
2023/10/15 02:44:32;;;;;;;9.47;6.90;;;;;;;;;;5014329;28;20215;-67
2023/10/15 02:47:07;;;;;;;8.93;6.77;;;;;;;;;;5014635;28;20211;-67
2023/10/15 02:49:50;;;;;;;16.10;7.40;;;;;;;;;;5014936;28;20166;-67
2023/10/15 02:52:19;;;;;;;11.50;7.70;;;;;;;;;;5014516;28;20299;-68
2023/10/15 02:54:48;;;;;;;12.87;7.13;;;;;;;;;;5013904;28;20275;-67
2023/10/15 02:57:17;;;;;;;13.90;6.90;;;;;;;;;;5015528;28;20175;-67
2023/10/15 02:59:50;;;;;;;11.90;7.20;;;;;;;;;;5015281;28;20194;-66
2023/10/15 03:02:21;;;;;;;15.13;7.60;;;;;;;;;;5015402;28;20228;-66
2023/10/15 03:04:56;;;;;;;13.97;7.40;;;;;;;;;;5015516;28;20286;-67
2023/10/15 03:07:33;;;;;;;16.70;7.47;;;;;;;;;;5013835;28;20688;-67
2023/10/15 03:10:02;;;;;;;18.00;7.63;;;;;;;;;;5015609;28;20163;-67
2023/10/15 03:12:33;;;;;;;17.13;8.57;;;;;;;;;;5013903;28;20176;-67
2023/10/15 03:15:00;;;;;;;14.10;7.87;;;;;;;;;;5015261;28;20218;-67
2023/10/15 03:17:29;;;;;;;13.77;5.83;;;;;;;;;;5015672;28;20183;-67
2023/10/15 03:19:56;;;;;;;10.93;5.07;;;;;;;;;;5014871;28;20180;-67
2023/10/15 03:22:27;;;;;;;6.67;4.30;;;;;;;;;;5013446;28;20180;-68
2023/10/15 03:24:56;;;;;;;11.00;5.27;;;;;;;;;;5013469;28;20203;-65
2023/10/15 03:27:26;;;;;;;13.70;5.47;;;;;;;;;;5014880;28;20203;-67
2023/10/15 03:29:56;;;;;;;8.23;5.33;;;;;;;;;;5013393;28;20180;-66
2023/10/15 03:32:27;;;;;;;6.90;5.07;;;;;;;;;;5013285;28;20210;-66
2023/10/15 03:37:45;;;;;;;8.67;4.30;;;;;;;;;;4993848;28;20282;-69
2023/10/15 03:40:41;;;;;;;7.83;4.10;;;;;;;;;;5013665;28;20236;-66
2023/10/15 03:43:04;;;;;;;4.13;3.00;;;;;;;;;;5014044;28;20234;-66
2023/10/15 03:45:32;;;;;;;6.70;3.30;;;;;;;;;;5014433;28;20196;-65
2023/10/15 03:48:00;;;;;;;6.27;3.37;;;;;;;;;;5014701;28;20183;-65
2023/10/15 03:50:29;;;;;;;7.97;4.10;;;;;;;;;;5014263;28;20196;-64
2023/10/15 03:52:58;;;;;;;8.90;4.80;;;;;;;;;;5012902;28;20601;-66
2023/10/15 03:55:24;;;;;;;9.23;5.43;;;;;;;;;;5014233;28;20191;-66
2023/10/15 03:57:52;;;;;;;9.97;5.83;;;;;;;;;;5014633;28;20204;-65
2023/10/15 04:00:35;;;;;;;8.87;5.47;;;;;;;;;;5014497;28;20168;-67
2023/10/15 04:03:07;;;;;;;12.23;7.07;;;;;;;;;;5014934;28;20171;-64
2023/10/15 04:05:34;;;;;;;9.70;7.10;;;;;;;;;;5011799;28;20238;-65
2023/10/15 04:08:00;;;;;;;10.40;7.60;;;;;;;;;;5012740;28;20215;-66
2023/10/15 04:10:35;;;;;;;16.23;8.30;;;;;;;;;;5012916;28;20184;-66
2023/10/15 04:13:01;;;;;;;11.80;8.37;;;;;;;;;;5014377;28;20214;-66
2023/10/15 04:15:30;;;;;;;12.13;7.30;;;;;;;;;;5013762;28;20215;-66
2023/10/15 04:17:56;;;;;;;17.80;7.77;;;;;;;;;;5014214;28;20235;-64
2023/10/15 04:20:34;;;;;;;10.47;6.63;;;;;;;;;;5014060;28;20285;-65
2023/10/15 04:23:00;;;;;;;10.10;6.03;;;;;;;;;;5014300;28;20160;-66
2023/10/15 04:25:32;;;;;;;8.40;4.73;;;;;;;;;;5012756;28;20228;-65
2023/10/15 04:28:11;;;;;;;11.23;5.27;;;;;;;;;;5012391;28;20237;-66
2023/10/15 04:30:41;;;;;;;6.60;4.13;;;;;;;;;;5012614;28;20525;-66
2023/10/15 04:33:13;;;;;;;7.00;4.37;;;;;;;;;;5012729;28;20176;-66
2023/10/15 04:35:40;;;;;;;8.90;4.70;;;;;;;;;;5012566;28;20203;-70
2023/10/15 04:38:09;;;;;;;8.63;4.50;;;;;;;;;;5013859;28;20172;-67
2023/10/15 04:41:10;;;;;;;8.27;4.20;;;;;;;;;;5012503;28;20216;-66
2023/10/15 04:43:28;;;;;;;9.03;5.40;;;;;;;;;;5011900;28;20642;-66
2023/10/15 04:45:55;;;;;;;9.43;4.83;;;;;;;;;;5013582;28;20249;-65
2023/10/15 04:48:26;;;;;;;11.60;5.27;;;;;;;;;;5014283;28;20183;-64
2023/10/15 04:50:53;;;;;;;7.00;4.60;;;;;;;;;;5014402;28;20160;-65
2023/10/15 04:55:46;;;;;;;7.43;4.53;;;;;;;;;;5014155;28;20214;-65
2023/10/15 04:58:12;;;;;;;10.00;4.30;;;;;;;;;;5012566;28;20230;-65
2023/10/15 05:00:41;;;;;;;7.30;4.87;;;;;;;;;;5012464;28;20203;-65
2023/10/15 05:03:09;;;;;;;11.47;4.43;;;;;;;;;;5012669;28;20595;-65
2023/10/15 05:05:35;;;;;;;8.73;4.57;;;;;;;;;;5012864;28;20219;-64
2023/10/15 05:08:01;;;;;;;9.10;4.57;;;;;;;;;;5012425;28;20712;-64
2023/10/15 05:10:31;;;;;;;6.07;3.60;;;;;;;;;;5013946;28;20664;-66
2023/10/15 05:12:59;;;;;;;7.20;3.40;;;;;;;;;;5013869;28;20666;-64
2023/10/15 05:15:25;;;;;;;6.70;3.30;;;;;;;;;;5014396;28;20211;-66
2023/10/15 05:17:51;;;;;;;7.20;2.90;;;;;;;;;;5014799;28;20211;-65
2023/10/15 05:20:20;;;;;;;3.80;2.67;;;;;;;;;;5017479;28;20657;-66
2023/10/15 05:22:46;;;;;;;5.03;2.20;;;;;;;;;;5016456;28;20187;-65
2023/10/15 05:25:17;;;;;;;2.73;2.30;;;;;;;;;;5015991;28;20200;-65
2023/10/15 05:27:43;;;;;;;3.70;2.37;;;;;;;;;;5016541;28;20207;-65
2023/10/15 05:30:10;;;;;;;4.83;2.00;;;;;;;;;;5016210;28;20176;-67
2023/10/15 05:32:36;;;;;;;4.43;2.20;;;;;;;;;;5016031;28;20184;-68
2023/10/15 05:35:03;;;;;;;9.70;7.30;;;;;;;;;;5015863;28;20336;-65
2023/10/15 05:37:29;;;;;;;6.63;5.93;;;;;;;;;;5016063;28;20222;-64
2023/10/15 05:39:55;;;;;;;6.97;5.63;;;;;;;;;;5015662;28;20408;-63
2023/10/15 05:42:21;;;;;;;4.33;2.77;;;;;;;;;;5015871;28;20183;-65
2023/10/15 05:44:47;;;;;;;7.63;6.90;;;;;;;;;;5015343;28;20257;-65
2023/10/15 05:47:13;;;;;;;3.27;2.80;;;;;;;;;;5015397;28;20677;-64
2023/10/15 05:49:39;;;;;;;4.93;3.73;;;;;;;;;;5015193;28;20194;-67
2023/10/15 05:52:06;;;;;;;6.17;4.77;;;;;;;;;;5017008;28;20610;-67
2023/10/15 05:54:32;;;;;;;8.73;5.63;;;;;;;;;;5015421;28;20218;-66
2023/10/15 05:56:58;;;;;;;6.07;3.47;;;;;;;;;;5016896;28;20176;-66
2023/10/15 05:59:24;;;;;;;4.43;2.70;;;;;;;;;;5016791;28;20180;-66
2023/10/15 06:01:51;;;;;;;14.20;9.30;;;;;;;;;;5016531;28;20528;-67
2023/10/15 06:04:17;;;;;;;24.93;15.83;;;;;;;;;;5016580;28;20667;-66
2023/10/15 06:06:44;;;;;;;23.87;14.83;;;;;;;;;;5016660;28;20246;-67
2023/10/15 06:09:11;;;;;;;10.53;5.00;;;;;;;;;;5015338;28;20180;-66
2023/10/15 06:11:37;;;;;;;3.90;3.30;;;;;;;;;;5017081;28;20172;-65
2023/10/15 06:14:05;;;;;;;8.40;6.47;;;;;;;;;;5015125;28;20376;-67
2023/10/15 06:16:31;;;;;;;8.57;4.50;;;;;;;;;;5016587;28;20251;-67
2023/10/15 06:18:57;;;;;;;7.43;5.10;;;;;;;;;;5015483;28;20204;-68
2023/10/15 06:21:23;;;;;;;8.07;7.20;;;;;;;;;;5016773;28;20188;-66
2023/10/15 06:23:49;;;;;;;7.63;6.53;;;;;;;;;;5031401;23;20246;-74
2023/10/15 06:26:15;;;;;;;7.70;5.00;;;;;;;;;;5015534;28;20202;-75
2023/10/15 06:28:41;;;;;;;5.23;3.13;;;;;;;;;;5014942;28;20180;-73
2023/10/15 06:31:09;;;;;;;9.60;4.70;;;;;;;;;;5016426;28;20234;-75
2023/10/15 06:33:38;;;;;;;4.77;3.40;;;;;;;;;;5014719;28;20200;-75
2023/10/15 06:36:04;;;;;;;8.30;6.40;;;;;;;;;;5016581;28;20188;-75
2023/10/15 06:38:30;;;;;;;9.00;6.30;;;;;;;;;;5016135;28;20704;-76
2023/10/15 06:40:57;;;;;;;15.30;11.80;;;;;;;;;;5016184;28;20180;-74
2023/10/15 06:43:23;;;;;;;8.17;5.93;;;;;;;;;;5015665;28;20195;-75
2023/10/15 06:45:51;;;;;;;5.70;5.10;;;;;;;;;;5015703;28;20212;-75
2023/10/15 06:48:17;;;;;;;7.30;5.23;;;;;;;;;;5015783;28;20172;-75
2023/10/15 06:50:43;;;;;;;9.27;8.00;;;;;;;;;;5015601;28;20255;-74
2023/10/15 06:53:09;;;;;;;8.10;6.60;;;;;;;;;;5013738;28;20215;-74
2023/10/15 06:55:35;;;;;;;7.33;3.50;;;;;;;;;;5015257;28;20642;-74
2023/10/15 06:58:01;;;;;;;6.47;5.23;;;;;;;;;;5015422;28;20563;-77
2023/10/15 07:00:31;;;;;;;5.93;3.50;;;;;;;;;;5015266;28;20183;-77
2023/10/15 07:02:57;;;;;;;6.90;4.63;;;;;;;;;;5015197;28;20183;-74
2023/10/15 07:05:25;;;;;;;5.60;4.27;;;;;;;;;;5015261;28;20666;-74
2023/10/15 07:07:51;;;;;;;4.27;3.00;;;;;;;;;;5014930;28;20218;-75
2023/10/15 07:10:17;;;;;;;8.30;4.67;;;;;;;;;;5015104;28;20226;-75
2023/10/15 07:12:50;;;;;;;5.23;3.63;;;;;;;;;;5013559;28;20233;-73
2023/10/15 07:15:17;;;;;;;7.93;5.97;;;;;;;;;;5015124;28;20188;-76
2023/10/15 07:17:43;;;;;;;12.90;9.10;;;;;;;;;;5015169;28;20180;-77
2023/10/15 07:20:21;;;;;;;8.63;6.37;;;;;;;;;;5015067;28;20182;-76
2023/10/15 07:22:48;;;;;;;11.67;7.90;;;;;;;;;;5013695;28;20710;-75
2023/10/15 07:25:14;;;;;;;9.87;8.87;;;;;;;;;;5014380;28;20594;-76
2023/10/15 07:27:45;;;;;;;9.10;6.27;;;;;;;;;;5014306;28;20204;-76
2023/10/15 07:30:12;;;;;;;4.70;4.17;;;;;;;;;;5014812;28;20160;-76
2023/10/15 07:32:39;;;;;;;8.60;6.00;;;;;;;;;;5013458;28;20299;-75
2023/10/15 07:35:07;;;;;;;6.67;4.97;;;;;;;;;;5014869;28;20246;-76
2023/10/15 07:37:34;;;;;;;15.43;7.73;;;;;;;;;;5014747;28;20180;-74
2023/10/15 07:40:00;;;;;;;15.43;8.13;;;;;;;;;;5015089;28;20270;-75
2023/10/15 07:42:26;;;;;;;13.00;9.20;;;;;;;;;;5014993;28;20238;-76
2023/10/15 07:44:52;;;;;;;6.10;5.17;;;;;;;;;;5014409;28;20199;-76
2023/10/15 07:47:18;;;;;;;5.50;4.70;;;;;;;;;;5014399;28;20279;-75
2023/10/15 07:49:45;;;;;;;11.43;7.10;;;;;;;;;;5013340;28;20561;-76
2023/10/15 07:52:11;;;;;;;6.57;3.43;;;;;;;;;;5013093;28;20219;-76
2023/10/15 07:54:37;;;;;;;5.50;4.10;;;;;;;;;;5014695;28;20199;-76
2023/10/15 07:57:04;;;;;;;4.27;3.03;;;;;;;;;;5013216;28;20252;-75
2023/10/15 07:59:29;;;;;;;4.00;2.37;;;;;;;;;;5014109;28;20183;-74
2023/10/15 08:01:55;;;;;;;2.33;2.13;;;;;;;;;;5012865;28;20183;-74
2023/10/15 08:04:22;;;;;;;5.00;2.23;;;;;;;;;;5014035;28;20257;-74
2023/10/15 08:06:48;;;;;;;4.40;3.03;;;;;;;;;;5012860;28;20203;-75
2023/10/15 08:09:14;;;;;;;4.17;2.40;;;;;;;;;;5012718;28;20203;-74
2023/10/15 08:11:41;;;;;;;3.10;1.80;;;;;;;;;;5012782;28;20182;-74
2023/10/15 08:14:07;;;;;;;3.60;2.53;;;;;;;;;;5012967;28;20208;-75
2023/10/15 08:16:33;;;;;;;5.07;2.30;;;;;;;;;;5015869;28;20602;-74
2023/10/15 08:18:59;;;;;;;5.70;3.20;;;;;;;;;;5013136;28;20691;-75
2023/10/15 08:21:25;;;;;;;4.60;2.37;;;;;;;;;;5013964;28;20235;-74
2023/10/15 08:23:53;;;;;;;4.27;2.80;;;;;;;;;;5013934;28;20219;-73
2023/10/15 08:26:19;;;;;;;2.87;2.57;;;;;;;;;;5013766;28;20195;-74
2023/10/15 08:28:45;;;;;;;5.73;2.43;;;;;;;;;;5014461;28;20551;-75
2023/10/15 08:31:11;;;;;;;5.90;2.20;;;;;;;;;;5014121;28;20186;-74
2023/10/15 08:33:37;;;;;;;4.73;2.53;;;;;;;;;;5013988;28;20270;-74
2023/10/15 08:36:02;;;;;;;3.00;2.43;;;;;;;;;;5014004;28;20594;-74
2023/10/15 08:38:29;;;;;;;3.73;2.30;;;;;;;;;;5013676;28;20642;-74
2023/10/15 08:40:56;;;;;;;3.00;2.10;;;;;;;;;;5012571;28;20617;-74
2023/10/15 08:43:24;;;;;;;3.47;2.80;;;;;;;;;;5014025;28;20200;-74
2023/10/15 08:45:51;;;;;;;4.10;2.83;;;;;;;;;;5012663;28;20218;-73
2023/10/15 08:48:18;;;;;;;3.50;2.37;;;;;;;;;;5012664;28;20230;-74
2023/10/15 08:50:45;;;;;;;4.33;2.67;;;;;;;;;;5014016;28;20178;-73
2023/10/15 08:53:13;;;;;;;4.00;2.97;;;;;;;;;;5016698;28;20186;-73
2023/10/15 08:55:41;;;;;;;4.30;2.53;;;;;;;;;;5016585;28;20180;-74
2023/10/15 08:58:09;;;;;;;7.33;2.60;;;;;;;;;;5016703;28;20194;-73
2023/10/15 09:00:36;;;;;;;4.40;2.83;;;;;;;;;;5017811;28;20174;-72
2023/10/15 09:03:03;;;;;;;5.43;2.53;;;;;;;;;;5017294;28;20179;-73
2023/10/15 09:05:40;;;;;;;5.47;3.33;;;;;;;;;;5017915;28;20259;-74
2023/10/15 09:08:07;;;;;;;4.80;2.37;;;;;;;;;;5017901;28;20180;-72
2023/10/15 09:10:35;;;;;;;4.13;2.23;;;;;;;;;;5017477;28;20638;-72
2023/10/15 09:13:01;;;;;;;3.43;2.27;;;;;;;;;;5017457;28;20207;-73
2023/10/15 09:15:29;;;;;;;4.90;2.87;;;;;;;;;;5017463;28;20666;-74
2023/10/15 09:17:56;;;;;;;4.30;2.37;;;;;;;;;;5016007;28;20184;-73
2023/10/15 09:20:32;;;;;;;5.23;2.47;;;;;;;;;;5017511;28;20585;-73
2023/10/15 09:22:59;;;;;;;5.87;2.83;;;;;;;;;;5016970;28;20278;-73
2023/10/15 09:25:29;;;;;;;4.97;2.90;;;;;;;;;;5016159;28;20245;-74
2023/10/15 09:27:55;;;;;;;7.73;2.97;;;;;;;;;;5017757;28;20607;-73
2023/10/15 09:30:22;;;;;;;9.50;3.50;;;;;;;;;;5017337;28;20203;-74
2023/10/15 09:32:48;;;;;;;9.50;3.27;;;;;;;;;;5017828;28;20179;-73
2023/10/15 09:35:14;;;;;;;7.67;3.50;;;;;;;;;;5017073;28;20202;-72
2023/10/15 09:37:41;;;;;;;5.00;2.90;;;;;;;;;;5015820;28;20194;-72
2023/10/15 09:40:20;;;;;;;5.20;3.13;;;;;;;;;;5016941;28;20180;-72
2023/10/15 09:42:53;;;;;;;6.43;3.30;;;;;;;;;;5015667;28;20267;-73
2023/10/15 09:45:19;;;;;;;4.07;2.90;;;;;;;;;;5015297;28;20768;-72
2023/10/15 09:47:48;;;;;;;3.33;2.27;;;;;;;;;;5016601;28;20200;-74
2023/10/15 09:50:16;;;;;;;6.17;2.77;;;;;;;;;;5016784;28;20302;-72
2023/10/15 09:52:44;;;;;;;3.93;2.20;;;;;;;;;;5016907;28;20586;-71
2023/10/15 09:55:11;;;;;;;8.33;2.83;;;;;;;;;;5016765;28;20203;-73
2023/10/15 09:57:37;;;;;;;7.27;2.60;;;;;;;;;;5018762;28;20650;-72
2023/10/15 10:00:07;;;;;;;8.80;2.87;;;;;;;;;;5015215;28;20190;-72
2023/10/15 10:02:39;;;;;;;5.40;2.33;;;;;;;;;;5015168;28;20180;-71
2023/10/15 10:05:17;;;;;;;5.57;2.20;;;;;;;;;;5016519;28;20262;-73
2023/10/15 10:08:22;;;;;;;5.90;2.73;;;;;;;;;;5016253;28;20287;-72
2023/10/15 10:10:56;;;;;;;4.40;2.23;;;;;;;;;;4975097;28;20189;-72
2023/10/15 10:13:39;;;;;;;5.47;1.90;;;;;;;;;;4974983;28;20200;-71
2023/10/15 10:16:08;;;;;;;4.10;2.07;;;;;;;;;;5001319;28;20718;-73
2023/10/15 10:18:37;;;;;;;3.83;2.37;;;;;;;;;;5014235;28;20191;-72
2023/10/15 10:21:07;;;;;;;4.23;1.90;;;;;;;;;;5014563;28;20180;-71
2023/10/15 10:23:33;;;;;;;4.03;2.07;;;;;;;;;;5015209;28;20716;-71
2023/10/15 10:25:59;;;;;;;4.50;1.73;;;;;;;;;;5015824;28;20223;-72
2023/10/15 10:28:25;;;;;;;3.87;2.00;;;;;;;;;;5014036;28;20650;-72
2023/10/15 10:30:53;;;;;;;4.83;1.60;;;;;;;;;;5015367;28;20609;-71
2023/10/15 10:33:39;;;;;;;4.67;2.00;;;;;;;;;;5014200;28;20175;-72
2023/10/15 10:36:12;;;;;;;5.43;2.07;;;;;;;;;;5015493;28;20180;-72
2023/10/15 10:38:41;;;;;;;4.60;1.80;;;;;;;;;;5015487;28;20179;-72
2023/10/15 10:41:16;;;;;;;3.17;1.73;;;;;;;;;;5015784;28;20546;-73
2023/10/15 10:43:42;;;;;;;4.40;1.80;;;;;;;;;;5013970;28;20235;-72
2023/10/15 10:46:19;;;;;;;4.93;2.03;;;;;;;;;;5014033;28;20752;-72
2023/10/15 10:49:01;;;;;;;4.63;2.10;;;;;;;;;;5016902;28;20168;-73
2023/10/15 10:51:30;;;;;;;3.00;1.63;;;;;;;;;;5015565;28;20672;-72
2023/10/15 10:53:56;;;;;;;4.30;1.47;;;;;;;;;;5015341;28;20192;-73
2023/10/15 10:56:42;;;;;;;3.67;1.73;;;;;;;;;;5015176;28;20183;-73
2023/10/15 10:59:09;;;;;;;7.10;1.93;;;;;;;;;;5012909;28;20188;-73
2023/10/15 11:01:48;;;;;;;3.33;1.73;;;;;;;;;;5013353;28;20186;-72
2023/10/15 11:04:15;;;;;;;2.93;1.47;;;;;;;;;;5015170;28;20737;-72
2023/10/15 11:06:42;;;;;;;7.03;1.73;;;;;;;;;;5013489;28;20208;-73
2023/10/15 11:09:15;;;;;;;4.03;1.60;;;;;;;;;;5015219;28;20257;-73
2023/10/15 11:11:41;;;;;;;2.97;1.70;;;;;;;;;;5013246;28;20180;-72
2023/10/15 11:14:07;;;;;;;1.97;1.40;;;;;;;;;;5013985;28;20792;-72
2023/10/15 11:16:33;;;;;;;3.80;1.20;;;;;;;;;;5014721;28;20176;-72
2023/10/15 11:18:59;;;;;;;4.57;1.30;;;;;;;;;;5014663;28;20553;-73
2023/10/15 11:21:25;;;;;;;2.10;1.03;;;;;;;;;;5014861;28;20179;-72
2023/10/15 11:23:53;;;;;;;2.40;1.30;;;;;;;;;;5014823;28;20266;-72
2023/10/15 11:26:19;;;;;;;2.43;1.33;;;;;;;;;;5014368;28;20199;-73
2023/10/15 11:28:46;;;;;;;1.97;1.30;;;;;;;;;;5013260;28;20176;-72
2023/10/15 11:31:12;;;;;;;2.57;1.50;;;;;;;;;;5013052;28;20183;-72
2023/10/15 11:33:39;;;;;;;3.37;1.33;;;;;;;;;;5014438;28;20325;-72
2023/10/15 11:36:09;;;;;;;3.27;1.40;;;;;;;;;;5014862;28;20550;-72
2023/10/15 11:38:37;;;;;;;1.97;1.30;;;;;;;;;;5014225;28;20176;-71
2023/10/15 11:41:04;;;;;;;2.27;1.70;;;;;;;;;;5015697;28;20180;-71
2023/10/15 11:43:32;;;;;;;4.20;1.50;;;;;;;;;;5014755;28;20191;-72
2023/10/15 11:46:07;;;;;;;5.60;1.50;;;;;;;;;;5014285;28;20224;-73
2023/10/15 11:48:34;;;;;;;2.33;1.40;;;;;;;;;;5014749;28;20154;-72
2023/10/15 11:51:00;;;;;;;3.53;1.43;;;;;;;;;;5014498;28;20207;-72
2023/10/15 11:53:26;;;;;;;2.10;1.43;;;;;;;;;;5014872;28;20579;-71
2023/10/15 11:55:55;;;;;;;2.27;1.30;;;;;;;;;;5014287;28;20657;-72
2023/10/15 11:58:27;;;;;;;4.53;1.30;;;;;;;;;;5014858;28;20183;-72
2023/10/15 12:00:53;;;;;;;2.17;1.40;;;;;;;;;;5014899;28;20156;-72
2023/10/15 12:03:20;;;;;;;2.20;1.10;;;;;;;;;;5014593;28;20172;-72
2023/10/15 12:05:46;;;;;;;5.03;1.83;;;;;;;;;;5014219;28;20199;-72
2023/10/15 12:08:13;;;;;;;3.67;1.47;;;;;;;;;;5014170;28;20179;-72
2023/10/15 12:10:45;;;;;;;3.60;1.77;;;;;;;;;;5014281;28;20593;-71
2023/10/15 12:13:17;;;;;;;3.70;2.07;;;;;;;;;;5012998;28;20187;-72
2023/10/15 12:15:43;;;;;;;2.50;1.50;;;;;;;;;;5014621;28;20171;-73
2023/10/15 12:18:09;;;;;;;3.53;1.90;;;;;;;;;;5014999;28;20175;-72
2023/10/15 12:20:35;;;;;;;3.90;1.50;;;;;;;;;;5014361;28;20311;-73
2023/10/15 12:23:01;;;;;;;2.37;1.30;;;;;;;;;;5014263;28;20180;-72
2023/10/15 12:25:27;;;;;;;3.17;1.70;;;;;;;;;;5014537;28;20194;-71
2023/10/15 12:27:53;;;;;;;3.93;1.80;;;;;;;;;;5013711;28;20202;-72
2023/10/15 12:30:28;;;;;;;3.80;1.50;;;;;;;;;;5014213;28;20529;-72
2023/10/15 12:32:55;;;;;;;2.83;1.60;;;;;;;;;;5014435;28;20274;-72
2023/10/15 12:35:21;;;;;;;2.93;1.30;;;;;;;;;;5012845;28;20195;-72
2023/10/15 12:37:48;;;;;;;3.93;1.50;;;;;;;;;;5013170;28;20180;-71
2023/10/15 12:40:21;;;;;;;8.97;1.43;;;;;;;;;;5014385;28;20254;-72
2023/10/15 12:42:47;;;;;;;2.83;1.50;;;;;;;;;;5014969;28;20155;-71
2023/10/15 12:45:13;;;;;;;4.53;1.60;;;;;;;;;;5014280;28;20712;-72
2023/10/15 12:47:39;;;;;;;2.87;1.87;;;;;;;;;;5014007;28;20271;-72
2023/10/15 12:50:14;;;;;;;5.90;1.70;;;;;;;;;;5013632;28;20882;-71
2023/10/15 12:52:40;;;;;;;5.82;1.60;;;;;;;;;;5012325;28;20381;-71
2023/10/15 12:55:07;;;;;;;4.95;2.38;;;;;;;;;;5011536;28;20451;-72
2023/10/15 12:57:33;;;;;;;10.27;5.05;;;;;;;;;;5012970;28;20551;-72
2023/10/15 13:00:00;;;;;;;7.38;3.45;;;;;;;;;;5012927;28;20534;-71
2023/10/15 13:02:27;;;;;;;6.15;3.53;;;;;;;;;;5012659;28;20476;-68
2023/10/15 13:04:53;;;;;;;5.28;2.00;;;;;;;;;;5011407;28;20389;-72
2023/10/15 13:07:19;;;;;;;5.70;2.05;;;;;;;;;;5012507;28;20450;-71
2023/10/15 13:09:45;;;;;;;5.18;2.22;;;;;;;;;;5012534;28;20377;-72
2023/10/15 13:12:11;;;;;;;6.18;2.55;;;;;;;;;;5012936;28;20388;-72
2023/10/15 13:14:38;;;;;;;4.27;2.10;;;;;;;;;;5012250;28;20414;-72
2023/10/15 13:17:04;;;;;;;3.67;1.90;;;;;;;;;;5012922;28;20381;-72
2023/10/15 13:19:30;;;;;;;6.15;1.98;;;;;;;;;;5012871;28;20389;-72
2023/10/15 13:21:56;;;;;;;6.43;2.35;;;;;;;;;;5012798;28;20384;-72
2023/10/15 13:24:21;;;;;;;4.72;2.10;;;;;;;;;;5012454;28;20389;-72
2023/10/15 13:26:47;;;;;;;3.92;1.80;;;;;;;;;;5012652;28;20400;-73
2023/10/15 13:29:14;;;;;;;4.72;1.95;;;;;;;;;;5012422;28;20469;-73
2023/10/15 13:31:41;;;;;;;4.60;2.07;;;;;;;;;;5012563;28;20463;-73
2023/10/15 13:34:09;;;;;;;5.30;1.92;;;;;;;;;;5012004;28;20377;-73
2023/10/15 13:36:34;;;;;;;5.30;2.00;;;;;;;;;;5012543;28;20454;-72
2023/10/15 13:39:01;;;;;;;5.18;1.80;;;;;;;;;;5014349;28;20893;-72
2023/10/15 13:41:27;;;;;;;4.05;1.65;;;;;;;;;;5015567;28;20376;-72
2023/10/15 13:43:53;;;;;;;5.47;2.25;;;;;;;;;;5016014;28;20428;-72
2023/10/15 13:46:19;;;;;;;6.45;3.17;;;;;;;;;;5015719;28;20440;-72
2023/10/15 13:48:45;;;;;;;4.72;2.10;;;;;;;;;;5015901;28;20384;-72
2023/10/15 13:51:11;;;;;;;4.65;2.25;;;;;;;;;;5015861;28;20385;-72
2023/10/15 13:53:37;;;;;;;5.00;1.88;;;;;;;;;;5015559;28;20751;-73
2023/10/15 13:56:03;;;;;;;5.18;2.00;;;;;;;;;;5016345;28;20388;-73
2023/10/15 13:58:29;;;;;;;4.10;2.13;;;;;;;;;;5014669;28;20389;-73
2023/10/15 14:00:56;;;;;;;6.22;2.13;;;;;;;;;;5015706;28;20428;-73
2023/10/15 14:03:22;;;;;;;3.92;1.90;;;;;;;;;;5015789;28;20392;-73
2023/10/15 14:05:47;;;;;;;4.20;1.58;;;;;;;;;;5015397;28;20392;-72
2023/10/15 14:08:13;;;;;;;3.30;1.50;;;;;;;;;;5016295;28;20172;-73
2023/10/15 14:10:40;;;;;;;4.47;1.93;;;;;;;;;;5015118;28;20183;-73
2023/10/15 14:13:06;;;;;;;13.13;9.13;;;;;;;;;;5016188;28;20228;-73
2023/10/15 14:15:33;;;;;;;10.50;7.43;;;;;;;;;;5015556;28;20190;-73
2023/10/15 14:17:58;;;;;;;6.40;2.30;;;;;;;;;;5015779;28;20700;-74
2023/10/15 14:20:25;;;;;;;2.00;1.80;;;;;;;;;;5014501;28;20180;-72
2023/10/15 14:22:54;;;;;;;4.07;2.23;;;;;;;;;;5015913;28;20237;-73
2023/10/15 14:25:20;;;;;;;5.30;2.40;;;;;;;;;;5015559;28;20218;-73
2023/10/15 14:27:47;;;;;;;3.73;1.70;;;;;;;;;;5014167;28;20253;-73
2023/10/15 14:30:13;;;;;;;3.80;2.20;;;;;;;;;;5015308;28;20176;-72
2023/10/15 14:32:39;;;;;;;5.47;1.83;;;;;;;;;;5015559;28;20180;-73
2023/10/15 14:35:09;;;;;;;5.23;3.87;;;;;;;;;;5014577;28;20199;-72
2023/10/15 14:37:35;;;;;;;3.37;1.70;;;;;;;;;;5015568;28;20176;-72
2023/10/15 14:40:01;;;;;;;3.90;1.67;;;;;;;;;;5015143;28;20341;-73
2023/10/15 14:42:27;;;;;;;5.17;2.50;;;;;;;;;;5015251;28;20682;-72
2023/10/15 14:44:54;;;;;;;4.33;1.77;;;;;;;;;;5013848;28;20330;-72
2023/10/15 14:47:20;;;;;;;3.30;1.43;;;;;;;;;;5013794;28;20287;-72
2023/10/15 14:49:46;;;;;;;3.03;1.70;;;;;;;;;;5012810;28;20215;-72
2023/10/15 14:52:12;;;;;;;2.77;1.40;;;;;;;;;;5013627;28;20186;-72
2023/10/15 14:54:38;;;;;;;3.50;1.53;;;;;;;;;;5015040;28;20199;-73
2023/10/15 14:57:04;;;;;;;4.93;1.50;;;;;;;;;;5014792;28;20188;-72
2023/10/15 14:59:30;;;;;;;3.77;1.73;;;;;;;;;;5015111;28;20262;-72